createdAt,value
2019-02-28T00:01:30.694Z,89.65
2019-02-28T00:04:01.414Z,90.09
2019-02-28T00:06:32.025Z,90.82
2019-02-28T00:09:02.637Z,91.51
2019-02-28T00:11:33.289Z,91.68
2019-02-28T00:14:03.822Z,92.72
2019-02-28T00:16:35.675Z,93.56
2019-02-28T00:19:06.851Z,94.20
2019-02-28T00:21:40.534Z,93.61
2019-02-28T00:24:09.824Z,93.08
2019-02-28T00:26:46.437Z,92.60
2019-02-28T00:29:12.744Z,92.97
2019-02-28T00:31:43.363Z,92.80
2019-02-28T00:34:14.003Z,92.00
2019-02-28T00:36:45.249Z,92.18
2019-02-28T00:39:15.866Z,92.25
2019-02-28T00:41:46.429Z,92.60
2019-02-28T00:44:17.499Z,93.27
2019-02-28T00:46:48.141Z,92.73
2019-02-28T00:49:19.162Z,93.73
2019-02-28T00:51:49.722Z,94.90
2019-02-28T00:54:20.991Z,93.41
2019-02-28T00:56:52.503Z,93.84
2019-02-28T00:59:23.704Z,91.04
2019-02-28T01:01:54.248Z,88.12
2019-02-28T01:04:24.969Z,86.88
2019-02-28T01:06:55.879Z,84.97
2019-02-28T01:09:29.785Z,86.72
2019-02-28T01:11:59.171Z,88.12
2019-02-28T01:14:32.374Z,88.23
2019-02-28T01:17:02.083Z,87.63
2019-02-28T01:19:32.730Z,89.02
2019-02-28T01:22:03.279Z,88.87
2019-02-28T01:24:34.776Z,89.41
2019-02-28T01:27:06.626Z,90.06
2019-02-28T01:29:37.301Z,91.93
2019-02-28T01:32:07.830Z,94.17
2019-02-28T01:34:38.482Z,94.67
2019-02-28T01:37:09.079Z,94.38
2019-02-28T01:39:39.625Z,94.38
2019-02-28T01:42:10.231Z,95.50
2019-02-28T01:44:40.753Z,95.94
2019-02-28T01:47:11.437Z,96.40
2019-02-28T01:49:41.986Z,96.67
2019-02-28T01:52:12.651Z,96.63
2019-02-28T01:54:43.212Z,96.27
2019-02-28T01:57:14.121Z,95.91
2019-02-28T01:59:44.615Z,93.44
2019-02-28T02:02:15.214Z,92.67
2019-02-28T02:04:46.585Z,89.56
2019-02-28T02:07:17.577Z,92.37
2019-02-28T02:09:48.127Z,92.62
2019-02-28T02:12:18.731Z,92.43
2019-02-28T02:14:49.303Z,94.56
2019-02-28T02:17:19.899Z,94.25
2019-02-28T02:19:52.162Z,91.38
2019-02-28T02:22:22.793Z,86.91
2019-02-28T02:24:53.277Z,84.00
2019-02-28T02:27:23.946Z,81.23
2019-02-28T02:29:54.494Z,80.44
2019-02-28T02:32:25.156Z,79.68
2019-02-28T02:34:55.764Z,79.48
2019-02-28T02:37:30.126Z,78.72
2019-02-28T02:39:58.991Z,78.99
2019-02-28T02:42:29.586Z,78.73
2019-02-28T02:45:05.005Z,78.73
2019-02-28T02:47:32.608Z,79.17
2019-02-28T02:50:03.325Z,79.40
2019-02-28T02:52:33.963Z,79.48
2019-02-28T02:55:04.870Z,79.50
2019-02-28T02:57:35.740Z,80.21
2019-02-28T03:00:13.796Z,80.86
2019-02-28T03:02:42.482Z,80.64
2019-02-28T03:05:13.440Z,81.04
2019-02-28T03:07:44.003Z,81.95
2019-02-28T03:10:18.242Z,82.00
2019-02-28T03:12:48.135Z,82.39
2019-02-28T03:15:25.572Z,82.87
2019-02-28T03:17:51.348Z,82.84
2019-02-28T03:20:21.795Z,83.62
2019-02-28T03:22:53.187Z,83.86
2019-02-28T03:25:27.448Z,84.03
2019-02-28T03:27:56.799Z,84.34
2019-02-28T03:30:32.384Z,84.42
2019-02-28T03:32:59.931Z,84.85
2019-02-28T03:35:40.018Z,85.17
2019-02-28T03:38:10.380Z,85.64
2019-02-28T03:40:39.825Z,86.44
2019-02-28T03:43:07.689Z,86.59
2019-02-28T03:45:38.364Z,87.11
2019-02-28T03:48:08.938Z,87.06
2019-02-28T03:50:39.558Z,87.25
2019-02-28T03:53:10.095Z,87.40
2019-02-28T03:55:41.648Z,86.93
2019-02-28T03:58:12.338Z,87.21
2019-02-28T04:00:43.570Z,87.21
2019-02-28T04:03:14.035Z,87.03
2019-02-28T04:05:44.687Z,87.78
2019-02-28T04:08:15.889Z,87.08
2019-02-28T04:10:46.556Z,86.97
2019-02-28T04:13:19.205Z,87.10
2019-02-28T04:16:07.711Z,87.10
2019-02-28T04:18:21.929Z,87.41
2019-02-28T04:20:52.560Z,87.75
2019-02-28T04:23:23.360Z,87.03
2019-02-28T04:25:56.823Z,87.33
2019-02-28T04:28:26.246Z,87.66
2019-02-28T04:30:57.300Z,87.93
2019-02-28T04:33:27.851Z,87.26
2019-02-28T04:36:00.641Z,87.27
2019-02-28T04:38:30.845Z,87.91
2019-02-28T04:41:01.500Z,88.23
2019-02-28T04:43:32.030Z,88.59
2019-02-28T04:46:02.681Z,88.90
2019-02-28T04:48:33.216Z,89.55
2019-02-28T04:51:05.686Z,90.87
2019-02-28T04:53:36.091Z,91.51
2019-02-28T04:56:11.056Z,91.65
2019-02-28T04:58:38.979Z,91.99
2019-02-28T05:01:12.380Z,92.34
2019-02-28T05:03:42.265Z,92.80
2019-02-28T05:06:12.931Z,93.53
2019-02-28T05:08:43.473Z,93.77
2019-02-28T05:11:14.567Z,95.10
2019-02-28T05:13:48.369Z,93.95
2019-02-28T05:16:17.389Z,94.15
2019-02-28T05:18:48.027Z,93.77
2019-02-28T05:21:19.541Z,95.00
2019-02-28T05:23:50.960Z,94.90
2019-02-28T05:26:23.422Z,95.53
2019-02-28T05:28:54.100Z,97.34
2019-02-28T05:31:27.069Z,97.31
2019-02-28T05:33:57.038Z,97.75
2019-02-28T05:36:27.579Z,97.92
2019-02-28T05:38:58.133Z,97.84
2019-02-28T05:41:28.740Z,98.03
2019-02-28T05:43:59.290Z,97.69
2019-02-28T05:46:29.942Z,97.83
2019-02-28T05:49:00.830Z,97.82
2019-02-28T05:51:31.471Z,98.68
2019-02-28T05:54:02.008Z,99.06
2019-02-28T05:56:33.275Z,99.66
2019-02-28T05:59:04.653Z,99.76
2019-02-28T06:01:35.331Z,100.00
2019-02-28T06:04:06.254Z,100.00
2019-02-28T06:06:36.910Z,100.00
2019-02-28T06:09:10.332Z,100.00
2019-02-28T06:11:41.079Z,100.00
2019-02-28T06:14:11.751Z,100.00
2019-02-28T06:16:46.271Z,100.00
2019-02-28T06:19:14.556Z,100.00
2019-02-28T06:21:45.288Z,100.00
2019-02-28T06:24:16.105Z,100.00
2019-02-28T06:26:46.878Z,100.00
2019-02-28T06:29:17.414Z,100.00
2019-02-28T06:31:48.658Z,100.00
2019-02-28T06:34:20.050Z,100.00
2019-02-28T06:36:50.749Z,100.00
2019-02-28T06:39:21.323Z,100.00
2019-02-28T06:41:51.980Z,100.00
2019-02-28T06:44:24.264Z,100.00
2019-02-28T06:46:54.921Z,100.00
2019-02-28T06:49:25.924Z,100.00
2019-02-28T06:51:56.577Z,100.00
2019-02-28T06:54:27.150Z,100.00
2019-02-28T06:56:57.808Z,100.00
2019-02-28T06:59:28.407Z,100.00
2019-02-28T07:01:59.074Z,100.00
2019-02-28T07:04:29.649Z,100.00
2019-02-28T07:07:00.321Z,100.00
2019-02-28T07:09:33.637Z,100.00
2019-02-28T07:12:03.789Z,100.00
2019-02-28T07:14:34.489Z,100.00
2019-02-28T07:17:07.806Z,100.00
2019-02-28T07:19:37.630Z,100.00
2019-02-28T07:22:08.330Z,100.00
2019-02-28T07:24:38.867Z,100.00
2019-02-28T07:27:09.501Z,100.00
2019-02-28T07:29:42.759Z,100.00
2019-02-28T07:32:12.318Z,100.00
2019-02-28T07:34:43.006Z,100.00
2019-02-28T07:37:18.586Z,100.00
2019-02-28T07:39:45.749Z,100.00
2019-02-28T07:42:16.341Z,100.00
2019-02-28T07:44:46.893Z,100.00
2019-02-28T07:47:18.397Z,100.00
2019-02-28T07:49:50.250Z,100.00
2019-02-28T07:52:21.101Z,100.00
2019-02-28T07:54:55.501Z,100.00
2019-02-28T07:57:23.929Z,100.00
2019-02-28T07:59:54.550Z,100.00
2019-02-28T08:02:25.086Z,100.00
2019-02-28T08:04:55.868Z,100.00
2019-02-28T08:07:26.844Z,100.00
2019-02-28T08:09:58.142Z,100.00
2019-02-28T08:12:30.907Z,100.00
2019-02-28T08:15:01.181Z,99.99
2019-02-28T08:17:31.712Z,99.75
2019-02-28T08:20:02.379Z,99.43
2019-02-28T08:22:32.941Z,99.35
2019-02-28T08:25:03.620Z,99.43
2019-02-28T08:27:34.631Z,99.48
2019-02-28T08:30:06.115Z,99.24
2019-02-28T08:32:42.719Z,99.27
2019-02-28T08:35:09.936Z,99.46
2019-02-28T08:37:40.565Z,99.12
2019-02-28T08:40:16.798Z,98.68
2019-02-28T08:42:48.265Z,98.39
2019-02-28T08:45:19.671Z,98.60
2019-02-28T08:47:55.401Z,98.37
2019-02-28T08:50:23.564Z,98.26
2019-02-28T08:52:54.527Z,97.35
2019-02-28T08:55:28.887Z,97.94
2019-02-28T08:58:04.325Z,97.56
2019-02-28T09:00:32.573Z,97.20
2019-02-28T09:03:02.150Z,96.72
2019-02-28T09:05:32.753Z,96.92
2019-02-28T09:08:03.290Z,96.54
2019-02-28T09:10:33.940Z,96.54
2019-02-28T09:13:07.744Z,95.86
2019-02-28T09:15:36.808Z,96.36
2019-02-28T09:18:07.502Z,96.26
2019-02-28T09:20:38.094Z,95.85
2019-02-28T09:23:08.647Z,95.42
2019-02-28T09:25:39.264Z,96.33
2019-02-28T09:28:10.225Z,95.91
2019-02-28T09:30:42.629Z,95.49
2019-02-28T09:33:13.178Z,95.64
2019-02-28T09:35:46.261Z,95.56
2019-02-28T09:38:16.489Z,95.58
2019-02-28T09:40:47.160Z,95.65
2019-02-28T09:43:17.714Z,95.70
2019-02-28T09:45:48.411Z,95.31
2019-02-28T09:48:19.027Z,95.63
2019-02-28T09:50:49.940Z,95.47
2019-02-28T09:53:20.745Z,94.36
2019-02-28T09:55:51.311Z,94.52
2019-02-28T09:58:21.970Z,94.09
2019-02-28T10:00:52.535Z,94.12
2019-02-28T10:03:23.600Z,94.04
2019-02-28T10:05:54.149Z,93.20
2019-02-28T10:08:24.813Z,93.50
2019-02-28T10:10:55.852Z,92.58
2019-02-28T10:13:27.507Z,93.07
2019-02-28T10:15:58.088Z,92.70
2019-02-28T10:18:28.753Z,92.31
2019-02-28T10:21:01.884Z,92.10
2019-02-28T10:23:31.686Z,91.10
2019-02-28T10:26:02.244Z,90.47
2019-02-28T10:28:32.943Z,90.37
2019-02-28T10:31:03.527Z,89.75
2019-02-28T10:33:34.254Z,89.23
2019-02-28T10:36:04.833Z,90.08
2019-02-28T10:38:35.468Z,89.51
2019-02-28T10:41:06.039Z,88.94
2019-02-28T10:43:36.616Z,88.49
2019-02-28T10:46:07.276Z,88.27
2019-02-28T10:48:41.829Z,87.42
2019-02-28T10:51:14.052Z,86.87
2019-02-28T10:53:42.411Z,86.18
2019-02-28T10:56:13.743Z,85.46
2019-02-28T10:58:47.074Z,85.49
2019-02-28T11:01:17.921Z,84.50
2019-02-28T11:03:49.251Z,85.26
2019-02-28T11:06:20.270Z,84.88
2019-02-28T11:08:50.923Z,84.66
2019-02-28T11:11:21.455Z,84.00
2019-02-28T11:13:52.146Z,82.69
2019-02-28T11:16:23.653Z,82.11
2019-02-28T11:18:55.146Z,81.70
2019-02-28T11:21:26.063Z,80.51
2019-02-28T11:23:56.819Z,80.51
2019-02-28T11:26:28.024Z,76.88
2019-02-28T11:29:02.839Z,75.71
2019-02-28T11:31:30.981Z,75.38
2019-02-28T11:34:01.614Z,73.05
2019-02-28T11:36:34.182Z,71.40
2019-02-28T11:39:06.697Z,70.73
2019-02-28T11:41:37.455Z,71.43
2019-02-28T11:44:09.257Z,72.18
2019-02-28T11:46:40.622Z,70.50
2019-02-28T11:49:11.227Z,70.50
2019-02-28T11:51:41.757Z,69.95
2019-02-28T11:54:13.429Z,70.32
2019-02-28T11:56:44.405Z,71.17
2019-02-28T11:59:15.082Z,71.08
2019-02-28T12:01:47.444Z,71.15
2019-02-28T12:04:18.185Z,71.56
2019-02-28T12:06:50.310Z,71.07
2019-02-28T12:09:21.132Z,70.40
2019-02-28T12:11:51.669Z,69.57
2019-02-28T12:14:23.287Z,68.08
2019-02-28T12:16:53.855Z,68.67
2019-02-28T12:19:24.438Z,67.29
2019-02-28T12:21:55.085Z,68.08
2019-02-28T12:24:25.997Z,66.33
2019-02-28T12:26:57.767Z,66.39
2019-02-28T12:29:28.653Z,66.16
2019-02-28T12:31:59.700Z,65.31
2019-02-28T12:34:30.629Z,65.25
2019-02-28T12:37:01.898Z,65.84
2019-02-28T12:39:33.408Z,65.51
2019-02-28T12:42:04.802Z,66.33
2019-02-28T12:44:35.379Z,67.03
2019-02-28T12:47:07.271Z,66.41
2019-02-28T12:49:38.051Z,67.73
2019-02-28T12:52:11.328Z,68.38
2019-02-28T12:54:40.964Z,68.59
2019-02-28T12:57:11.597Z,69.44
2019-02-28T13:14:40.729Z,71.17
2019-02-28T13:17:11.834Z,69.66
2019-02-28T13:43:59.477Z,68.20
2019-02-28T13:46:32.208Z,68.09
2019-02-28T13:48:58.990Z,69.53
2019-02-28T13:51:29.052Z,68.74
2019-02-28T13:53:59.100Z,69.23
2019-02-28T13:56:33.167Z,68.75
2019-02-28T13:59:00.874Z,68.48
2019-02-28T14:01:30.927Z,69.33
2019-02-28T14:04:00.936Z,68.76
2019-02-28T14:06:30.922Z,68.74
2019-02-28T14:09:00.970Z,70.27
2019-02-28T14:11:31.303Z,69.41
2019-02-28T14:14:01.362Z,68.09
2019-02-28T14:16:31.425Z,67.33
2019-02-28T14:19:01.734Z,69.73
2019-02-28T14:21:34.395Z,70.32
2019-02-28T14:24:03.430Z,69.25
2019-02-28T14:26:42.393Z,68.97
2019-02-28T14:29:07.026Z,69.71
2019-02-28T14:31:36.930Z,69.85
2019-02-28T14:34:06.983Z,69.63
2019-02-28T14:36:37.049Z,70.14
2019-02-28T14:39:11.907Z,68.27
2019-02-28T14:41:42.158Z,68.56
2019-02-28T14:44:12.235Z,68.33
2019-02-28T14:46:42.391Z,69.09
2019-02-28T14:49:13.389Z,70.83
2019-02-28T14:51:43.696Z,70.99
2019-02-28T14:54:14.087Z,69.02
2019-02-28T14:56:44.083Z,68.82
2019-02-28T14:59:14.064Z,69.62
2019-02-28T15:01:44.134Z,69.38
2019-02-28T15:04:14.129Z,69.90
2019-02-28T15:06:44.191Z,68.89
2019-02-28T15:09:17.947Z,68.47
2019-02-28T15:11:48.389Z,70.66
2019-02-28T15:14:18.487Z,70.20
2019-02-28T15:16:48.487Z,70.20
2019-02-28T15:19:21.450Z,69.18
2019-02-28T15:21:50.458Z,67.62
2019-02-28T15:24:20.510Z,68.27
2019-02-28T15:26:50.499Z,70.13
2019-02-28T15:29:23.390Z,70.26
2019-02-28T15:31:52.774Z,70.83
2019-02-28T15:34:23.061Z,72.03
2019-02-28T15:36:55.570Z,70.81
2019-02-28T15:39:25.082Z,72.39
2019-02-28T15:41:55.076Z,74.68
2019-02-28T15:44:25.698Z,74.53
2019-02-28T15:46:56.786Z,74.00
2019-02-28T15:49:26.927Z,74.61
2019-02-28T15:51:56.996Z,76.55
2019-02-28T15:54:27.055Z,76.24
2019-02-28T15:56:57.184Z,76.90
2019-02-28T15:59:27.164Z,78.67
2019-02-28T16:01:57.304Z,79.65
2019-02-28T16:04:27.354Z,80.30
2019-02-28T16:06:58.263Z,81.21
2019-02-28T16:09:28.240Z,81.71
2019-02-28T16:11:58.296Z,82.32
2019-02-28T16:14:28.340Z,83.03
2019-02-28T16:17:00.359Z,83.67
2019-02-28T16:19:30.103Z,84.30
2019-02-28T16:22:00.377Z,84.91
2019-02-28T16:24:30.540Z,85.38
2019-02-28T16:27:00.971Z,85.92
2019-02-28T16:29:31.320Z,86.39
2019-02-28T16:32:01.472Z,87.14
2019-02-28T16:34:31.454Z,87.63
2019-02-28T16:37:01.964Z,88.07
2019-02-28T16:39:32.227Z,88.43
2019-02-28T16:42:02.204Z,88.80
2019-02-28T16:44:32.257Z,89.31
2019-02-28T16:47:02.965Z,89.47
2019-02-28T16:49:32.939Z,89.92
2019-02-28T16:52:05.995Z,90.48
2019-02-28T16:54:34.766Z,90.60
2019-02-28T16:57:05.078Z,91.13
2019-02-28T16:59:35.210Z,91.54
2019-02-28T17:02:05.410Z,91.75
2019-02-28T17:04:35.536Z,92.22
2019-02-28T17:07:06.410Z,92.54
2019-02-28T17:09:40.492Z,92.54
2019-02-28T17:12:29.589Z,92.88
2019-02-28T17:14:59.818Z,93.06
2019-02-28T17:17:43.445Z,93.21
2019-02-28T17:20:14.000Z,92.96
2019-02-28T17:22:43.969Z,93.27
2019-02-28T17:25:14.419Z,93.53
2019-02-28T17:27:55.682Z,93.66
2019-02-28T17:30:43.309Z,93.50
2019-02-28T17:33:13.281Z,93.81
2019-02-28T17:35:43.268Z,94.22
2019-02-28T17:38:13.247Z,93.93
2019-02-28T17:40:43.563Z,94.00
2019-02-28T17:43:13.604Z,93.78
2019-02-28T17:45:43.739Z,93.87
2019-02-28T17:49:26.430Z,93.95
2019-02-28T17:52:16.436Z,94.22
2019-02-28T17:55:31.094Z,94.10
2019-02-28T17:58:18.390Z,94.75
2019-02-28T18:01:43.707Z,93.74
2019-02-28T18:05:04.538Z,94.10
2019-02-28T18:08:04.870Z,94.33
2019-02-28T18:11:44.334Z,94.82
2019-02-28T18:14:46.363Z,95.33
2019-02-28T18:18:02.026Z,95.88
2019-02-28T18:21:06.394Z,96.30
2019-02-28T18:24:16.821Z,97.38
2019-02-28T18:27:14.711Z,98.27
2019-02-28T18:31:14.345Z,99.71
2019-02-28T18:33:52.328Z,100.00
2019-02-28T18:36:25.595Z,100.00
2019-02-28T18:38:55.648Z,100.00
2019-02-28T18:41:26.147Z,100.00
2019-02-28T18:43:56.493Z,100.00
2019-02-28T18:46:29.521Z,100.00
2019-02-28T18:48:58.607Z,100.00
2019-02-28T18:51:28.663Z,100.00
2019-02-28T18:53:58.728Z,100.00
2019-02-28T18:56:28.782Z,100.00
2019-02-28T18:58:58.840Z,100.00
2019-02-28T19:01:28.900Z,100.00
2019-02-28T19:03:58.985Z,100.00
2019-02-28T19:06:29.038Z,100.00
2019-02-28T19:08:59.040Z,100.00
2019-02-28T19:11:29.425Z,100.00
2019-02-28T19:13:59.422Z,100.00
2019-02-28T19:16:29.403Z,100.00
2019-02-28T19:18:59.396Z,100.00
2019-02-28T19:21:29.384Z,100.00
2019-02-28T19:23:59.703Z,100.00
2019-02-28T19:26:29.685Z,100.00
2019-02-28T19:28:59.940Z,100.00
2019-02-28T19:31:29.915Z,100.00
2019-02-28T19:33:59.977Z,100.00
2019-02-28T19:36:30.040Z,100.00
2019-02-28T19:39:00.261Z,100.00
2019-02-28T19:41:30.247Z,100.00
2019-02-28T19:44:00.251Z,100.00
2019-02-28T19:46:30.241Z,100.00
2019-02-28T19:49:00.283Z,100.00
2019-02-28T19:51:30.221Z,100.00
2019-02-28T19:54:00.471Z,100.00
2019-02-28T19:56:30.768Z,100.00
2019-02-28T19:59:00.763Z,100.00
2019-02-28T20:01:30.825Z,100.00
2019-02-28T20:04:00.897Z,100.00
2019-02-28T20:06:30.956Z,100.00
2019-02-28T20:09:00.957Z,100.00
2019-02-28T20:11:31.191Z,100.00
2019-02-28T20:14:01.530Z,100.00
2019-02-28T20:16:31.594Z,100.00
2019-02-28T20:19:01.739Z,100.00
2019-02-28T20:21:32.166Z,100.00
2019-02-28T20:24:02.579Z,100.00
2019-02-28T20:26:32.642Z,100.00
2019-02-28T20:29:02.643Z,100.00
2019-02-28T20:31:32.709Z,100.00
2019-02-28T20:34:02.794Z,100.00
2019-02-28T20:36:32.855Z,100.00
2019-02-28T20:39:02.922Z,100.00
2019-02-28T20:41:32.911Z,100.00
2019-02-28T20:44:02.976Z,100.00
2019-02-28T20:46:33.038Z,100.00
2019-02-28T20:49:03.449Z,100.00
2019-02-28T20:51:33.442Z,100.00
2019-02-28T20:54:03.799Z,100.00
2019-02-28T20:56:33.952Z,100.00
2019-02-28T20:59:04.076Z,100.00
2019-02-28T21:01:34.312Z,100.00
2019-02-28T21:04:04.818Z,100.00
2019-02-28T21:06:35.195Z,100.00
2019-02-28T21:09:07.860Z,100.00
2019-02-28T21:11:38.250Z,100.00
2019-02-28T21:14:08.311Z,100.00
2019-02-28T21:16:38.860Z,100.00
2019-02-28T21:19:08.893Z,100.00
2019-02-28T21:21:38.963Z,100.00
2019-02-28T21:24:09.625Z,100.00
2019-02-28T21:26:39.673Z,100.00
2019-02-28T21:29:10.024Z,100.00
2019-02-28T21:31:40.116Z,100.00
2019-02-28T21:34:10.406Z,100.00
2019-02-28T21:36:40.895Z,100.00
2019-02-28T21:39:11.842Z,100.00
2019-02-28T21:41:42.209Z,100.00
2019-02-28T21:44:12.668Z,100.00
2019-02-28T21:46:42.811Z,100.00
2019-02-28T21:49:13.304Z,100.00
2019-02-28T21:51:44.016Z,100.00
2019-02-28T21:54:14.069Z,100.00
2019-02-28T21:56:44.139Z,100.00
2019-02-28T21:59:14.457Z,100.00
2019-02-28T22:01:45.048Z,100.00
2019-02-28T22:04:15.128Z,100.00
2019-02-28T22:06:45.379Z,100.00
2019-02-28T22:09:15.434Z,100.00
2019-02-28T22:11:46.215Z,100.00
2019-02-28T22:14:16.178Z,100.00
2019-02-28T22:16:46.214Z,100.00
2019-02-28T22:19:16.567Z,100.00
2019-02-28T22:21:46.639Z,100.00
2019-02-28T22:24:16.759Z,100.00
2019-02-28T22:26:46.992Z,100.00
2019-02-28T22:29:17.047Z,100.00
2019-02-28T22:32:03.480Z,100.00
2019-02-28T22:34:41.985Z,100.00
2019-02-28T22:37:12.141Z,100.00
2019-02-28T22:39:42.404Z,100.00
2019-02-28T22:42:21.733Z,100.00
2019-02-28T22:44:44.611Z,100.00
2019-02-28T22:47:14.687Z,100.00
2019-02-28T22:49:44.774Z,100.00
2019-02-28T22:52:14.866Z,100.00
2019-02-28T22:54:44.838Z,100.00
2019-02-28T22:57:15.248Z,100.00
2019-02-28T22:59:45.251Z,100.00
2019-02-28T23:02:15.501Z,100.00
2019-02-28T23:04:45.556Z,100.00
2019-02-28T23:07:15.853Z,100.00
2019-02-28T23:09:46.268Z,100.00
2019-02-28T23:12:16.652Z,100.00
2019-02-28T23:14:46.637Z,100.00
2019-02-28T23:17:17.271Z,100.00
2019-02-28T23:19:47.328Z,100.00
2019-02-28T23:22:17.305Z,100.00
2019-02-28T23:24:47.344Z,100.00
2019-02-28T23:27:20.943Z,100.00
2019-02-28T23:30:21.400Z,100.00
2019-02-28T23:33:06.047Z,100.00
2019-02-28T23:35:42.488Z,100.00
2019-02-28T23:38:12.552Z,100.00
2019-02-28T23:40:42.632Z,100.00
2019-02-28T23:43:12.840Z,100.00
2019-02-28T23:45:42.893Z,100.00
2019-02-28T23:48:12.944Z,100.00
2019-02-28T23:50:42.928Z,100.00
2019-02-28T23:53:12.980Z,100.00
2019-02-28T23:55:43.033Z,100.00
2019-02-28T23:58:13.008Z,100.00
